createdAt,value
2018-12-11T00:01:53.726Z,1.67
2018-12-11T00:06:58.746Z,1.70
2018-12-11T00:12:03.634Z,1.50
2018-12-11T00:17:08.753Z,1.30
2018-12-11T00:22:13.685Z,1.30
2018-12-11T00:27:18.623Z,1.40
2018-12-11T00:32:23.523Z,1.70
2018-12-11T00:37:28.084Z,1.32
2018-12-11T00:42:32.914Z,1.50
2018-12-11T00:47:37.607Z,1.47
2018-12-11T00:52:42.704Z,1.27
2018-12-11T00:57:47.284Z,1.50
2018-12-11T01:02:52.733Z,1.40
2018-12-11T01:07:57.022Z,1.10
2018-12-11T01:13:02.793Z,1.20
2018-12-11T01:18:07.596Z,1.20
2018-12-11T01:23:12.645Z,1.12
2018-12-11T01:28:17.404Z,1.17
2018-12-11T01:33:22.864Z,1.30
2018-12-11T01:38:27.644Z,1.20
2018-12-11T01:43:32.693Z,1.20
2018-12-11T01:48:38.104Z,1.10
2018-12-11T01:53:42.993Z,1.20
2018-12-11T01:58:47.592Z,1.12
2018-12-11T02:03:52.425Z,1.30
2018-12-11T02:08:57.657Z,1.10
2018-12-11T02:14:02.225Z,1.15
2018-12-11T02:19:08.004Z,1.40
2018-12-11T02:24:12.733Z,0.98
2018-12-11T02:29:17.266Z,1.27
2018-12-11T02:34:22.648Z,1.12
2018-12-11T02:39:27.914Z,1.15
2018-12-11T02:44:32.566Z,0.90
2018-12-11T02:49:37.572Z,1.15
2018-12-11T02:54:42.060Z,1.10
2018-12-11T02:59:47.311Z,0.90
2018-12-11T03:04:52.137Z,0.90
2018-12-11T03:09:56.526Z,1.02
2018-12-11T03:15:02.047Z,0.98
2018-12-11T03:20:07.106Z,1.00
2018-12-11T03:25:11.837Z,1.00
2018-12-11T03:30:16.632Z,1.12
2018-12-11T03:35:22.099Z,0.90
2018-12-11T03:40:27.277Z,0.90
2018-12-11T03:45:31.936Z,0.95
2018-12-11T03:50:36.505Z,1.00
2018-12-11T03:55:41.854Z,0.90
2018-12-11T04:00:47.100Z,0.98
2018-12-11T04:05:52.498Z,1.02
2018-12-11T04:10:57.205Z,0.98
2018-12-11T04:16:02.244Z,0.70
2018-12-11T04:21:07.494Z,0.90
2018-12-11T04:26:12.555Z,0.70
2018-12-11T04:31:17.942Z,0.80
2018-12-11T04:36:22.534Z,0.90
2018-12-11T04:41:27.586Z,0.70
2018-12-11T04:46:32.536Z,0.95
2018-12-11T04:51:37.389Z,0.80
2018-12-11T04:56:42.225Z,1.00
2018-12-11T05:01:46.854Z,0.72
2018-12-11T05:06:51.505Z,0.70
2018-12-11T05:11:57.004Z,1.02
2018-12-11T05:17:02.394Z,0.90
2018-12-11T05:22:07.626Z,0.65
2018-12-11T05:27:12.495Z,0.88
2018-12-11T05:32:18.065Z,0.90
2018-12-11T05:37:23.124Z,0.80
2018-12-11T05:42:29.254Z,0.88
2018-12-11T05:47:34.514Z,0.70
2018-12-11T05:52:39.386Z,0.90
2018-12-11T05:57:44.267Z,0.80
2018-12-11T06:02:49.566Z,0.82
2018-12-11T06:07:54.466Z,0.82
2018-12-11T06:12:59.574Z,0.88
2018-12-11T06:18:04.218Z,0.80
2018-12-11T06:23:08.995Z,0.65
2018-12-11T06:28:14.234Z,0.88
2018-12-11T06:33:19.154Z,1.00
2018-12-11T06:38:23.681Z,0.70
2018-12-11T06:43:28.615Z,0.90
2018-12-11T06:48:33.753Z,1.00
2018-12-11T06:53:38.642Z,0.90
2018-12-11T06:58:43.983Z,2.83
2018-12-11T07:03:49.263Z,2.30
2018-12-11T07:08:53.913Z,2.70
2018-12-11T07:13:58.593Z,2.20
2018-12-11T07:19:03.393Z,3.15
2018-12-11T07:24:08.393Z,3.10
2018-12-11T07:29:13.533Z,3.22
2018-12-11T07:34:18.312Z,2.60
2018-12-11T07:39:23.671Z,2.75
2018-12-11T07:44:28.573Z,2.70
2018-12-11T07:49:33.712Z,3.17
2018-12-11T07:54:38.722Z,2.62
2018-12-11T07:59:43.762Z,3.35
2018-12-11T08:04:48.353Z,3.27
2018-12-11T08:09:52.892Z,2.85
2018-12-11T08:14:57.612Z,6.08
2018-12-11T08:20:02.593Z,8.30
2018-12-11T08:25:07.565Z,4.85
2018-12-11T08:30:12.703Z,4.62
2018-12-11T08:35:17.761Z,5.55
2018-12-11T08:40:22.871Z,5.35
2018-12-11T08:45:28.084Z,5.85
2018-12-11T08:50:32.872Z,5.37
2018-12-11T08:55:39.151Z,6.75
2018-12-11T09:00:44.264Z,5.78
2018-12-11T09:05:48.723Z,6.35
2018-12-11T09:10:53.572Z,6.55
2018-12-11T09:15:58.824Z,6.12
2018-12-11T09:21:03.965Z,5.25
2018-12-11T09:26:09.136Z,5.50
2018-12-11T09:31:13.934Z,5.83
2018-12-11T09:36:18.831Z,5.78
2018-12-11T09:41:24.102Z,5.47
2018-12-11T09:46:28.802Z,5.55
2018-12-11T09:51:34.982Z,5.08
2018-12-11T09:56:40.032Z,5.08
2018-12-11T10:01:44.892Z,5.12
2018-12-11T10:06:49.624Z,5.47
2018-12-11T10:11:54.681Z,4.58
2018-12-11T10:16:59.833Z,4.12
2018-12-11T10:22:04.804Z,4.33
2018-12-11T10:27:09.833Z,4.85
2018-12-11T10:32:14.544Z,4.87
2018-12-11T10:37:19.422Z,3.30
2018-12-11T10:42:24.126Z,3.10
2018-12-11T10:47:29.162Z,3.17
2018-12-11T10:52:34.322Z,2.65
2018-12-11T10:57:39.353Z,2.80
2018-12-11T11:03:01.624Z,2.75
2018-12-11T11:08:06.232Z,2.67
2018-12-11T11:13:11.840Z,2.58
2018-12-11T11:18:16.992Z,2.70
2018-12-11T11:23:21.534Z,2.77
2018-12-11T11:28:26.125Z,2.47
2018-12-11T11:33:30.734Z,2.67
2018-12-11T11:38:35.392Z,2.27
2018-12-11T11:43:40.383Z,2.65
2018-12-11T11:48:45.263Z,2.40
2018-12-11T11:53:50.115Z,1.95
2018-12-11T11:58:54.883Z,2.85
2018-12-11T12:04:00.185Z,2.47
2018-12-11T12:09:05.523Z,2.45
2018-12-11T12:14:10.594Z,2.25
2018-12-11T12:19:15.484Z,2.83
2018-12-11T12:24:20.874Z,2.65
2018-12-11T12:29:25.986Z,2.67
2018-12-11T12:34:30.813Z,3.12
2018-12-11T12:39:35.325Z,2.70
2018-12-11T12:44:40.061Z,2.30
2018-12-11T12:49:50.401Z,2.30
2018-12-11T12:54:49.813Z,2.92
2018-12-11T12:59:55.175Z,2.80
2018-12-11T13:05:00.093Z,2.92
2018-12-11T13:10:05.735Z,2.42
2018-12-11T13:15:10.883Z,2.72
2018-12-11T13:20:17.313Z,3.42
2018-12-11T13:25:22.116Z,2.37
2018-12-11T13:30:27.163Z,2.40
2018-12-11T13:35:31.722Z,2.12
2018-12-11T13:40:36.353Z,3.35
2018-12-11T13:45:41.622Z,2.58
2018-12-11T13:50:46.582Z,2.80
2018-12-11T13:55:51.252Z,2.77
2018-12-11T14:00:56.482Z,2.80
2018-12-11T14:06:01.342Z,2.50
2018-12-11T14:11:06.733Z,2.52
2018-12-11T14:16:11.322Z,3.15
2018-12-11T14:21:16.093Z,2.75
2018-12-11T14:26:21.122Z,2.62
2018-12-11T14:31:26.102Z,2.42
2018-12-11T14:36:30.823Z,2.47
2018-12-11T14:41:36.014Z,2.95
2018-12-11T14:46:41.142Z,2.60
2018-12-11T14:51:45.932Z,2.05
2018-12-11T14:56:50.462Z,2.45
2018-12-11T15:01:55.803Z,2.10
2018-12-11T15:07:00.830Z,2.00
2018-12-11T15:12:05.823Z,3.00
2018-12-11T15:17:11.053Z,2.45
2018-12-11T15:22:16.421Z,2.45
2018-12-11T15:27:20.952Z,3.20
2018-12-11T15:32:25.823Z,3.58
2018-12-11T15:37:30.728Z,2.92
2018-12-11T15:42:35.973Z,3.70
2018-12-11T15:47:40.993Z,2.92
2018-12-11T15:52:46.383Z,3.10
2018-12-11T15:57:50.857Z,2.90
2018-12-11T16:02:55.871Z,3.08
2018-12-11T16:08:01.042Z,2.80
2018-12-11T16:13:05.722Z,3.15
2018-12-11T16:18:10.821Z,2.75
2018-12-11T16:23:15.543Z,3.08
2018-12-11T16:28:20.081Z,3.02
2018-12-11T16:33:25.362Z,2.60
2018-12-11T16:38:30.285Z,2.67
2018-12-11T16:43:34.902Z,2.02
2018-12-11T16:48:40.072Z,2.40
2018-12-11T16:53:44.752Z,2.47
2018-12-11T16:58:49.953Z,2.55
2018-12-11T17:03:54.292Z,2.30
2018-12-11T17:08:59.143Z,2.50
2018-12-11T17:14:03.684Z,2.12
2018-12-11T17:19:08.583Z,2.10
2018-12-11T17:24:13.434Z,1.80
2018-12-11T17:29:23.994Z,2.35
2018-12-11T17:34:23.656Z,2.10
2018-12-11T17:39:28.223Z,2.10
2018-12-11T17:44:32.705Z,2.05
2018-12-11T17:49:37.634Z,2.00
2018-12-11T17:54:42.245Z,2.37
2018-12-11T17:59:47.504Z,2.62
2018-12-11T18:04:51.995Z,2.45
2018-12-11T18:09:56.599Z,2.40
2018-12-11T18:15:01.478Z,4.03
2018-12-11T18:20:07.204Z,3.92
2018-12-11T18:25:12.170Z,3.58
2018-12-11T18:30:17.066Z,3.62
2018-12-11T18:35:22.144Z,3.17
2018-12-11T18:40:27.144Z,3.10
2018-12-11T18:45:31.952Z,2.67
2018-12-11T18:50:36.834Z,3.47
2018-12-11T18:55:41.346Z,2.98
2018-12-11T19:00:47.262Z,3.42
2018-12-11T19:05:53.413Z,2.90
2018-12-11T19:11:04.194Z,2.92
2018-12-11T19:16:09.973Z,2.52
2018-12-11T19:21:18.003Z,3.20
2018-12-11T19:26:23.579Z,2.60
2018-12-11T19:31:28.417Z,2.17
2018-12-11T19:36:32.998Z,2.72
2018-12-11T19:41:38.271Z,2.55
2018-12-11T19:46:43.368Z,2.52
2018-12-11T19:51:48.110Z,2.95
2018-12-11T19:56:53.211Z,2.30
2018-12-11T20:01:57.808Z,3.30
2018-12-11T20:07:04.638Z,2.40
2018-12-11T20:12:09.608Z,2.30
2018-12-11T20:17:15.080Z,2.58
2018-12-11T20:22:20.587Z,2.70
2018-12-11T20:27:27.167Z,2.60
2018-12-11T20:32:35.371Z,2.33
2018-12-11T20:37:43.695Z,2.70
2018-12-11T20:42:51.356Z,2.67
2018-12-11T20:47:59.327Z,2.55
2018-12-11T20:53:06.987Z,2.30
2018-12-11T20:58:13.496Z,2.58
2018-12-11T21:03:19.486Z,2.87
2018-12-11T21:08:27.496Z,2.40
2018-12-11T21:13:34.151Z,2.55
2018-12-11T21:18:39.786Z,2.42
2018-12-11T21:23:44.901Z,2.65
2018-12-11T21:28:50.976Z,2.55
2018-12-11T21:33:56.207Z,2.30
2018-12-11T21:39:07.415Z,1.95
2018-12-11T21:44:23.962Z,2.27
2018-12-11T21:49:31.133Z,2.40
2018-12-11T21:54:39.390Z,2.62
2018-12-11T21:59:45.004Z,2.00
2018-12-11T22:04:50.986Z,2.00
2018-12-11T22:09:55.965Z,2.12
2018-12-11T22:15:00.978Z,2.10
2018-12-11T22:20:06.803Z,2.17
2018-12-11T22:25:12.526Z,1.90
2018-12-11T22:30:17.645Z,2.37
2018-12-11T22:35:22.514Z,2.05
2018-12-11T22:40:27.569Z,2.27
2018-12-11T22:45:33.126Z,1.98
2018-12-11T22:50:37.905Z,2.00
2018-12-11T22:55:42.992Z,2.27
2018-12-11T23:00:47.846Z,2.30
2018-12-11T23:05:52.612Z,2.30
2018-12-11T23:10:56.927Z,2.55
2018-12-11T23:16:02.062Z,2.77
2018-12-11T23:21:07.352Z,2.80
2018-12-11T23:26:12.384Z,2.80
2018-12-11T23:31:17.033Z,2.37
2018-12-11T23:36:22.253Z,2.98
2018-12-11T23:41:27.253Z,2.40
2018-12-11T23:46:32.373Z,2.70
2018-12-11T23:51:37.804Z,2.75
2018-12-11T23:56:42.813Z,2.90
